createdAt,value
2022-08-17T00:00:34.555Z,97759.25
2022-08-17T00:01:52.012Z,97762.34
2022-08-17T00:03:08.318Z,97761.59
2022-08-17T00:04:11.972Z,97768.91
2022-08-17T00:05:15.491Z,97757.75
2022-08-17T00:06:25.481Z,97763.13
2022-08-17T00:07:27.060Z,97752.34
2022-08-17T00:08:34.857Z,97757.38
2022-08-17T00:09:36.482Z,97756.97
2022-08-17T00:10:38.623Z,97761.25
2022-08-17T00:11:43.043Z,97759.69
2022-08-17T00:13:11.640Z,97763.56
2022-08-17T00:14:17.631Z,97758.53
2022-08-17T00:15:20.850Z,97762.38
2022-08-17T00:16:55.930Z,97759.31
2022-08-17T00:17:51.843Z,97762.78
2022-08-17T00:18:56.699Z,97757.78
2022-08-17T00:20:11.213Z,97755.84
2022-08-17T00:21:14.762Z,97758.53
2022-08-17T00:22:33.853Z,97761.25
2022-08-17T00:23:37.683Z,97753.94
2022-08-17T00:24:39.267Z,97753.94
2022-08-17T00:25:45.474Z,97753.53
2022-08-17T00:26:47.332Z,97754.72
2022-08-17T00:27:48.824Z,97760.50
2022-08-17T00:28:50.354Z,97754.34
2022-08-17T00:29:53.512Z,97756.63
2022-08-17T00:30:55.011Z,97750.47
2022-08-17T00:31:56.564Z,97748.94
2022-08-17T00:33:22.940Z,97748.94
2022-08-17T00:34:19.902Z,97747.78
2022-08-17T00:35:23.394Z,97753.56
2022-08-17T00:36:25.178Z,97748.16
2022-08-17T00:37:26.674Z,97747.41
2022-08-17T00:38:29.024Z,97751.63
2022-08-17T00:39:30.593Z,97750.09
2022-08-17T00:40:40.072Z,97743.56
2022-08-17T00:41:46.256Z,97745.81
2022-08-17T00:42:48.549Z,97734.28
2022-08-17T00:44:00.637Z,97740.47
2022-08-17T00:45:03.854Z,97742.75
2022-08-17T00:46:10.638Z,97737.38
2022-08-17T00:47:12.195Z,97740.84
2022-08-17T00:48:29.424Z,97743.50
2022-08-17T00:49:32.118Z,97735.84
2022-08-17T00:50:35.109Z,97742.38
2022-08-17T00:52:01.311Z,97732.38
2022-08-17T00:53:04.550Z,97728.91
2022-08-17T00:54:23.837Z,97731.22
2022-08-17T00:55:26.319Z,97735.44
2022-08-17T00:56:33.090Z,97738.91
2022-08-17T00:57:45.232Z,97740.81
2022-08-17T00:58:48.375Z,97735.84
2022-08-17T01:00:02.691Z,97732.38
2022-08-17T01:01:08.109Z,97739.28
2022-08-17T01:02:12.895Z,97735.84
2022-08-17T01:03:19.053Z,97741.22
2022-08-17T01:04:22.249Z,97741.22
2022-08-17T01:05:27.042Z,97738.53
2022-08-17T01:06:31.868Z,97737.75
2022-08-17T01:07:34.337Z,97737.38
2022-08-17T01:08:40.316Z,97741.22
2022-08-17T01:09:43.375Z,97729.28
2022-08-17T01:10:59.140Z,97732.75
2022-08-17T01:12:08.538Z,97743.91
2022-08-17T01:13:11.561Z,97744.28
2022-08-17T01:14:13.314Z,97733.91
2022-08-17T01:15:16.794Z,97731.19
2022-08-17T01:16:31.576Z,97728.91
2022-08-17T01:17:33.880Z,97731.97
2022-08-17T01:18:35.810Z,97730.06
2022-08-17T01:19:40.715Z,97735.44
2022-08-17T01:20:48.888Z,97736.59
2022-08-17T01:22:03.450Z,97721.56
2022-08-17T01:23:05.031Z,97736.59
2022-08-17T01:24:07.311Z,97726.97
2022-08-17T01:25:09.568Z,97730.03
2022-08-17T01:26:11.131Z,97723.13
2022-08-17T01:27:14.226Z,97725.41
2022-08-17T01:28:52.799Z,97726.56
2022-08-17T01:29:40.877Z,97731.19
2022-08-17T01:30:58.802Z,97724.66
2022-08-17T01:32:04.389Z,97731.19
2022-08-17T01:33:05.904Z,97728.13
2022-08-17T01:34:10.370Z,97733.50
2022-08-17T01:35:12.225Z,97731.56
2022-08-17T01:36:14.124Z,97736.97
2022-08-17T01:37:16.553Z,97740.03
2022-08-17T01:38:18.097Z,97732.72
2022-08-17T01:39:33.686Z,97738.47
2022-08-17T01:40:38.897Z,97740.41
2022-08-17T01:41:41.003Z,97744.25
2022-08-17T01:43:00.438Z,97738.88
2022-08-17T01:44:05.439Z,97742.72
2022-08-17T01:45:11.801Z,97737.34
2022-08-17T01:46:21.772Z,97746.94
2022-08-17T01:47:23.822Z,97739.66
2022-08-17T01:48:34.454Z,97745.78
2022-08-17T01:49:35.976Z,97742.72
2022-08-17T01:50:41.268Z,97741.94
2022-08-17T01:51:42.863Z,97745.78
2022-08-17T01:52:46.338Z,97742.69
2022-08-17T01:53:52.200Z,97740.38
2022-08-17T01:54:54.694Z,97745.38
2022-08-17T01:56:01.160Z,97746.16
2022-08-17T01:57:03.444Z,97749.22
2022-08-17T01:58:05.542Z,97751.16
2022-08-17T01:59:07.248Z,97742.28
2022-08-17T02:00:09.337Z,97752.28
2022-08-17T02:01:13.896Z,97750.75
2022-08-17T02:02:30.441Z,97750.34
2022-08-17T02:03:34.976Z,97749.56
2022-08-17T02:04:36.559Z,97738.84
2022-08-17T02:05:38.963Z,97743.81
2022-08-17T02:06:52.545Z,97741.50
2022-08-17T02:07:59.955Z,97740.34
2022-08-17T02:09:03.810Z,97742.63
2022-08-17T02:10:06.789Z,97738.78
2022-08-17T02:11:22.006Z,97743.78
2022-08-17T02:12:38.985Z,97745.31
2022-08-17T02:13:41.986Z,97751.06
2022-08-17T02:14:43.664Z,97750.31
2022-08-17T02:15:45.582Z,97754.91
2022-08-17T02:16:47.139Z,97751.06
2022-08-17T02:17:48.698Z,97752.97
2022-08-17T02:18:56.619Z,97756.41
2022-08-17T02:19:58.251Z,97754.88
2022-08-17T02:21:00.191Z,97750.66
2022-08-17T02:22:01.830Z,97756.81
2022-08-17T02:23:04.739Z,97757.59
2022-08-17T02:24:15.647Z,97755.69
2022-08-17T02:25:20.302Z,97758.38
2022-08-17T02:26:26.734Z,97758.38
2022-08-17T02:27:29.284Z,97758.72
2022-08-17T02:28:31.351Z,97753.34
2022-08-17T02:29:32.903Z,97753.75
2022-08-17T02:30:58.969Z,97754.91
2022-08-17T02:31:56.085Z,97756.81
2022-08-17T02:32:57.622Z,97749.53
2022-08-17T02:34:04.559Z,97747.59
2022-08-17T02:35:07.484Z,97748.00
2022-08-17T02:36:10.323Z,97750.28
2022-08-17T02:37:11.940Z,97741.06
2022-08-17T02:38:13.547Z,97755.66
2022-08-17T02:39:15.249Z,97752.59
2022-08-17T02:40:17.493Z,97756.03
2022-08-17T02:41:38.906Z,97753.31
2022-08-17T02:42:42.341Z,97750.25
2022-08-17T02:43:43.849Z,97750.66
2022-08-17T02:44:45.400Z,97754.84
2022-08-17T02:45:47.020Z,97759.84
2022-08-17T02:46:48.593Z,97761.00
2022-08-17T02:47:50.575Z,97756.38
2022-08-17T02:48:52.107Z,97753.31
2022-08-17T02:49:55.340Z,97763.25
2022-08-17T02:50:57.426Z,97760.16
2022-08-17T02:51:59.019Z,97761.72
2022-08-17T02:53:02.517Z,97762.50
2022-08-17T02:54:39.653Z,97756.34
2022-08-17T02:55:32.640Z,97759.44
2022-08-17T02:56:34.178Z,97765.94
2022-08-17T02:57:35.726Z,97755.94
2022-08-17T02:58:37.329Z,97753.25
2022-08-17T02:59:41.596Z,97753.63
2022-08-17T03:00:46.676Z,97754.78
2022-08-17T03:01:48.320Z,97755.16
2022-08-17T03:02:51.175Z,97745.56
2022-08-17T03:03:53.097Z,97741.72
2022-08-17T03:04:54.582Z,97743.25
2022-08-17T03:05:56.118Z,97749.00
2022-08-17T03:06:57.641Z,97741.72
2022-08-17T03:07:59.435Z,97745.56
2022-08-17T03:09:01.004Z,97740.56
2022-08-17T03:10:02.753Z,97748.63
2022-08-17T03:11:04.707Z,97748.25
2022-08-17T03:12:08.915Z,97740.19
2022-08-17T03:13:12.283Z,97752.84
2022-08-17T03:14:13.787Z,97748.63
2022-08-17T03:15:18.983Z,97745.91
2022-08-17T03:16:20.484Z,97754.38
2022-08-17T03:17:21.998Z,97752.44
2022-08-17T03:18:24.650Z,97759.34
2022-08-17T03:19:27.614Z,97754.75
2022-08-17T03:20:31.633Z,97748.22
2022-08-17T03:21:33.143Z,97755.50
2022-08-17T03:22:40.563Z,97746.31
2022-08-17T03:23:42.063Z,97750.13
2022-08-17T03:24:44.040Z,97753.25
2022-08-17T03:25:46.363Z,97754.78
2022-08-17T03:26:47.839Z,97753.63
2022-08-17T03:27:50.272Z,97754.00
2022-08-17T03:28:53.405Z,97755.19
2022-08-17T03:29:54.924Z,97753.63
2022-08-17T03:30:56.483Z,97763.25
2022-08-17T03:31:58.088Z,97754.00
2022-08-17T03:33:02.292Z,97760.94
2022-08-17T03:34:03.849Z,97763.25
2022-08-17T03:35:06.114Z,97765.59
2022-08-17T03:36:08.089Z,97766.38
2022-08-17T03:37:09.814Z,97774.03
2022-08-17T03:38:12.812Z,97771.75
2022-08-17T03:39:17.491Z,97774.84
2022-08-17T03:40:55.422Z,97781.75
2022-08-17T03:41:40.877Z,97787.88
2022-08-17T03:42:42.821Z,97790.97
2022-08-17T03:43:44.403Z,97787.91
2022-08-17T03:44:50.428Z,97789.44
2022-08-17T03:45:52.119Z,97785.22
2022-08-17T03:46:54.959Z,97778.72
2022-08-17T03:47:56.443Z,97781.03
2022-08-17T03:48:57.967Z,97784.47
2022-08-17T03:49:59.522Z,97787.97
2022-08-17T03:51:01.182Z,97774.50
2022-08-17T03:52:02.758Z,97778.72
2022-08-17T03:53:08.901Z,97784.13
2022-08-17T03:54:11.554Z,97772.59
2022-08-17T03:55:13.084Z,97781.41
2022-08-17T03:56:14.745Z,97771.78
2022-08-17T03:57:16.522Z,97780.59
2022-08-17T03:58:18.153Z,97774.84
2022-08-17T03:59:22.502Z,97779.47
2022-08-17T04:00:24.330Z,97774.47
2022-08-17T04:01:25.931Z,97782.53
2022-08-17T04:02:31.522Z,97780.22
2022-08-17T04:03:33.377Z,97783.31
2022-08-17T04:04:35.879Z,97775.59
2022-08-17T04:05:37.381Z,97784.81
2022-08-17T04:06:40.475Z,97786.75
2022-08-17T04:07:42.150Z,97780.22
2022-08-17T04:08:43.645Z,97777.88
2022-08-17T04:09:45.157Z,97786.34
2022-08-17T04:10:46.970Z,97784.78
2022-08-17T04:11:48.476Z,97784.00
2022-08-17T04:12:54.779Z,97789.78
2022-08-17T04:13:56.512Z,97790.16
2022-08-17T04:14:58.723Z,97784.00
2022-08-17T04:16:00.333Z,97794.75
2022-08-17T04:17:02.237Z,97797.13
2022-08-17T04:18:03.975Z,97791.72
2022-08-17T04:19:06.529Z,97798.66
2022-08-17T04:20:08.605Z,97797.88
2022-08-17T04:21:10.395Z,97795.94
2022-08-17T04:22:11.903Z,97802.06
2022-08-17T04:23:33.421Z,97808.94
2022-08-17T04:24:35.655Z,97813.94
2022-08-17T04:25:39.948Z,97805.44
2022-08-17T04:26:53.607Z,97815.06
2022-08-17T04:27:56.852Z,97823.50
2022-08-17T04:28:58.780Z,97823.50
2022-08-17T04:30:01.080Z,97823.88
2022-08-17T04:31:02.594Z,97831.19
2022-08-17T04:32:04.594Z,97825.41
2022-08-17T04:33:09.795Z,97831.16
2022-08-17T04:34:11.755Z,97824.97
2022-08-17T04:35:18.297Z,97824.22
2022-08-17T04:36:19.993Z,97829.97
2022-08-17T04:37:21.536Z,97823.81
2022-08-17T04:38:26.127Z,97816.88
2022-08-17T04:39:27.711Z,97818.41
2022-08-17T04:40:29.343Z,97820.72
2022-08-17T04:41:30.871Z,97828.03
2022-08-17T04:42:32.509Z,97822.66
2022-08-17T04:43:35.464Z,97818.41
2022-08-17T04:44:38.201Z,97821.50
2022-08-17T04:45:55.450Z,97828.44
2022-08-17T04:46:57.970Z,97832.66
2022-08-17T04:48:00.990Z,97835.34
2022-08-17T04:49:07.227Z,97834.56
2022-08-17T04:50:09.271Z,97845.31
2022-08-17T04:51:25.021Z,97841.06
2022-08-17T04:52:29.823Z,97844.56
2022-08-17T04:53:54.308Z,97842.28
2022-08-17T04:54:56.530Z,97841.94
2022-08-17T04:55:57.989Z,97836.56
2022-08-17T04:56:59.501Z,97835.06
2022-08-17T04:58:01.027Z,97842.00
2022-08-17T04:59:06.314Z,97835.50
2022-08-17T05:00:08.616Z,97830.94
2022-08-17T05:01:10.242Z,97829.84
2022-08-17T05:02:14.104Z,97828.72
2022-08-17T05:03:15.710Z,97829.47
2022-08-17T05:04:33.938Z,97838.28
2022-08-17T05:05:38.942Z,97846.00
2022-08-17T05:06:40.553Z,97847.97
2022-08-17T05:07:42.150Z,97848.72
2022-08-17T05:08:43.786Z,97854.91
2022-08-17T05:09:45.269Z,97858.38
2022-08-17T05:10:47.400Z,97866.06
2022-08-17T05:11:48.956Z,97859.94
2022-08-17T05:13:15.088Z,97855.72
2022-08-17T05:14:16.662Z,97864.66
2022-08-17T05:15:18.154Z,97861.97
2022-08-17T05:16:22.532Z,97853.19
2022-08-17T05:17:24.079Z,97852.44
2022-08-17T05:18:26.602Z,97849.75
2022-08-17T05:19:28.393Z,97848.59
2022-08-17T05:20:30.897Z,97848.19
2022-08-17T05:21:32.473Z,97847.44
2022-08-17T05:22:33.987Z,97846.25
2022-08-17T05:23:42.874Z,97849.28
2022-08-17T05:24:53.922Z,97841.13
2022-08-17T05:25:57.216Z,97847.97
2022-08-17T05:27:06.222Z,97848.69
2022-08-17T05:28:09.391Z,97837.13
2022-08-17T05:29:11.104Z,97839.78
2022-08-17T05:30:14.124Z,97843.50
2022-08-17T05:31:15.895Z,97834.94
2022-08-17T05:32:39.692Z,97833.25
2022-08-17T05:33:44.524Z,97829.59
2022-08-17T05:34:48.298Z,97823.72
2022-08-17T05:35:52.012Z,97830.63
2022-08-17T05:36:53.583Z,97832.16
2022-08-17T05:37:56.756Z,97836.41
2022-08-17T05:38:59.325Z,97831.81
2022-08-17T05:40:01.054Z,97838.38
2022-08-17T05:41:05.522Z,97845.38
2022-08-17T05:42:07.051Z,97842.31
2022-08-17T05:43:11.420Z,97845.78
2022-08-17T05:44:12.978Z,97846.56
2022-08-17T05:45:17.194Z,97838.03
2022-08-17T05:46:43.395Z,97841.03
2022-08-17T05:47:46.319Z,97839.09
2022-08-17T05:48:54.079Z,97842.56
2022-08-17T05:49:56.441Z,97841.72
2022-08-17T05:51:24.761Z,97837.84
2022-08-17T05:52:29.265Z,97840.06
2022-08-17T05:54:06.986Z,97837.16
2022-08-17T05:55:14.097Z,97840.03
2022-08-17T05:56:49.447Z,97843.50
2022-08-17T05:57:57.476Z,97842.41
2022-08-17T05:59:16.850Z,97842.88
2022-08-17T06:00:41.876Z,97839.41
2022-08-17T06:01:46.763Z,97836.59
2022-08-17T06:02:59.516Z,97842.78
2022-08-17T06:04:16.571Z,97843.50
2022-08-17T06:05:45.316Z,97843.50
2022-08-17T06:06:59.233Z,97838.47
2022-08-17T06:08:16.663Z,97846.47
2022-08-17T06:09:32.996Z,97847.09
2022-08-17T06:10:51.097Z,97848.03
2022-08-17T06:12:23.258Z,97849.44
2022-08-17T06:13:54.830Z,97860.16
2022-08-17T06:15:08.443Z,97871.41
2022-08-17T06:16:28.199Z,97863.97
2022-08-17T06:17:36.894Z,97870.50
2022-08-17T06:18:50.137Z,97869.34
2022-08-17T06:20:08.353Z,97876.25
2022-08-17T06:21:16.656Z,97869.22
2022-08-17T06:22:22.290Z,97866.84
2022-08-17T06:23:35.968Z,97876.47
2022-08-17T06:25:10.172Z,97880.16
2022-08-17T06:26:22.206Z,97878.72
2022-08-17T06:27:43.034Z,97875.84
2022-08-17T06:29:02.390Z,97868.50
2022-08-17T06:30:57.508Z,97872.81
2022-08-17T06:31:55.082Z,97877.41
2022-08-17T06:33:03.087Z,97874.75
2022-08-17T06:34:09.533Z,97872.19
2022-08-17T06:35:14.657Z,97876.88
2022-08-17T06:36:43.765Z,97871.34
2022-08-17T06:38:03.606Z,97873.44
2022-08-17T06:39:23.897Z,97873.19
2022-08-17T06:40:46.395Z,97872.94
2022-08-17T06:43:02.465Z,97871.91
2022-08-17T06:44:43.133Z,97878.34
2022-08-17T06:45:46.709Z,97883.25
2022-08-17T06:46:55.079Z,97891.63
2022-08-17T06:48:09.481Z,97893.56
2022-08-17T06:49:28.026Z,97899.19
2022-08-17T06:50:44.145Z,97898.88
2022-08-17T06:52:06.589Z,97897.25
2022-08-17T06:53:20.930Z,97906.78
2022-08-17T06:54:32.905Z,97914.47
2022-08-17T06:55:38.308Z,97911.78
2022-08-17T06:56:54.473Z,97897.72
2022-08-17T06:57:59.690Z,97896.22
2022-08-17T06:59:01.907Z,97895.50
2022-08-17T07:00:11.644Z,97885.06
2022-08-17T07:01:25.468Z,97884.88
2022-08-17T07:02:52.177Z,97885.78
2022-08-17T07:04:13.409Z,97886.00
2022-08-17T07:05:18.205Z,97880.22
2022-08-17T07:06:23.555Z,97875.31
2022-08-17T07:07:25.058Z,97867.84
2022-08-17T07:08:35.092Z,97860.53
2022-08-17T07:09:38.022Z,97855.34
2022-08-17T07:10:44.824Z,97860.47
2022-08-17T07:11:54.341Z,97867.66
2022-08-17T07:13:02.714Z,97861.94
2022-08-17T07:14:04.280Z,97862.47
2022-08-17T07:15:17.386Z,97860.63
2022-08-17T07:16:25.859Z,97860.22
2022-08-17T07:17:46.573Z,97860.44
2022-08-17T07:18:51.704Z,97864.84
2022-08-17T07:20:01.454Z,97877.06
2022-08-17T07:21:26.641Z,97872.19
2022-08-17T07:22:57.617Z,97866.25
2022-08-17T07:24:28.099Z,97861.75
2022-08-17T07:25:31.965Z,97854.44
2022-08-17T07:26:33.494Z,97854.50
2022-08-17T07:28:02.499Z,97850.34
2022-08-17T07:29:09.977Z,97848.50
2022-08-17T07:30:28.356Z,97859.16
2022-08-17T07:31:30.943Z,97860.09
2022-08-17T07:32:36.350Z,97860.78
2022-08-17T07:33:37.897Z,97858.94
2022-08-17T07:35:04.052Z,97861.81
2022-08-17T07:36:27.734Z,97863.69
2022-08-17T07:37:31.268Z,97856.28
2022-08-17T07:38:34.762Z,97858.84
2022-08-17T07:39:36.357Z,97867.50
2022-08-17T07:40:58.032Z,97867.63
2022-08-17T07:42:04.356Z,97866.78
2022-08-17T07:43:15.566Z,97865.44
2022-08-17T07:44:23.932Z,97869.88
2022-08-17T07:45:25.495Z,97874.00
2022-08-17T07:46:33.349Z,97875.00
2022-08-17T07:47:35.085Z,97870.66
2022-08-17T07:48:39.165Z,97870.13
2022-08-17T07:49:43.750Z,97866.34
2022-08-17T07:50:49.374Z,97870.50
2022-08-17T07:51:52.217Z,97873.22
2022-08-17T07:52:53.845Z,97868.97
2022-08-17T07:54:14.053Z,97869.31
2022-08-17T07:55:28.217Z,97873.28
2022-08-17T07:56:35.797Z,97882.06
2022-08-17T07:57:37.311Z,97879.16
2022-08-17T07:58:38.877Z,97877.56
2022-08-17T08:00:01.339Z,97883.03
2022-08-17T08:01:10.157Z,97887.47
2022-08-17T08:02:14.481Z,97887.22
2022-08-17T08:03:26.224Z,97887.47
2022-08-17T08:05:57.474Z,97885.22
2022-08-17T08:07:01.253Z,97892.50
2022-08-17T08:08:17.920Z,97894.91
2022-08-17T08:10:07.340Z,97898.16
2022-08-17T08:11:11.347Z,97895.31
2022-08-17T08:12:41.788Z,97891.53
2022-08-17T08:13:44.571Z,97888.16
2022-08-17T08:14:54.015Z,97900.44
2022-08-17T08:16:23.857Z,97900.97
2022-08-17T08:17:35.152Z,97897.84
2022-08-17T08:18:54.318Z,97904.34
2022-08-17T08:19:59.411Z,97908.81
2022-08-17T08:21:00.967Z,97905.34
2022-08-17T08:22:08.597Z,97901.44
2022-08-17T08:23:22.530Z,97908.84
2022-08-17T08:24:55.568Z,97910.28
2022-08-17T08:26:25.623Z,97909.81
2022-08-17T08:28:07.228Z,97917.78
2022-08-17T08:29:23.790Z,97914.81
2022-08-17T08:30:25.279Z,97921.81
2022-08-17T08:31:26.694Z,97916.59
2022-08-17T08:32:50.586Z,97908.16
2022-08-17T08:34:09.272Z,97908.66
2022-08-17T08:35:56.499Z,97905.97
2022-08-17T08:37:30.499Z,97905.03
2022-08-17T08:38:55.639Z,97910.03
2022-08-17T08:40:25.213Z,97914.06
2022-08-17T08:41:44.406Z,97919.06
2022-08-17T08:43:07.741Z,97913.22
2022-08-17T08:45:01.317Z,97923.16
2022-08-17T08:46:18.393Z,97912.66
2022-08-17T08:47:51.265Z,97920.84
2022-08-17T08:49:38.969Z,97921.94
2022-08-17T08:51:03.004Z,97923.56
2022-08-17T08:52:19.370Z,97922.25
2022-08-17T08:53:39.284Z,97916.69
2022-08-17T08:55:01.299Z,97927.03
2022-08-17T08:56:30.886Z,97921.28
2022-08-17T08:57:38.335Z,97923.22
2022-08-17T08:58:56.016Z,97936.84
2022-08-17T09:00:12.893Z,97936.63
2022-08-17T09:01:41.824Z,97935.97
2022-08-17T09:02:58.410Z,97939.69
2022-08-17T09:04:24.776Z,97934.13
2022-08-17T09:05:45.454Z,97940.34
2022-08-17T09:07:01.800Z,97937.63
2022-08-17T09:08:27.585Z,97933.69
2022-08-17T09:09:47.693Z,97931.94
2022-08-17T09:11:04.822Z,97930.09
2022-08-17T09:12:18.468Z,97936.28
2022-08-17T09:13:30.107Z,97930.47
2022-08-17T09:14:51.244Z,97926.59
2022-08-17T09:16:02.758Z,97934.72
2022-08-17T09:17:18.579Z,97928.16
2022-08-17T09:19:02.576Z,97924.16
2022-08-17T09:20:14.444Z,97920.84
2022-08-17T09:21:48.601Z,97921.28
2022-08-17T09:23:02.353Z,97918.38
2022-08-17T09:24:13.922Z,97920.78
2022-08-17T09:25:28.141Z,97927.13
2022-08-17T09:26:48.575Z,97930.06
2022-08-17T09:28:07.623Z,97926.13
2022-08-17T09:29:16.062Z,97922.78
2022-08-17T09:30:18.357Z,97925.91
2022-08-17T09:31:33.350Z,97931.69
2022-08-17T09:32:44.692Z,97937.25
2022-08-17T09:33:48.643Z,97936.94
2022-08-17T09:34:57.001Z,97937.81
2022-08-17T09:36:05.399Z,97946.06
2022-08-17T09:37:15.880Z,97937.59
2022-08-17T09:38:31.740Z,97944.09
2022-08-17T09:40:00.217Z,97948.94
2022-08-17T09:41:33.259Z,97953.25
2022-08-17T09:42:47.429Z,97957.94
2022-08-17T09:44:00.323Z,97969.97
2022-08-17T09:45:21.685Z,97978.00
2022-08-17T09:46:38.893Z,97968.28
2022-08-17T09:47:46.417Z,97970.97
2022-08-17T09:48:56.415Z,97971.69
2022-08-17T09:50:13.391Z,97966.75
2022-08-17T09:51:34.902Z,97960.31
2022-08-17T09:52:36.560Z,97959.22
2022-08-17T09:53:39.296Z,97963.47
2022-08-17T09:54:41.535Z,97957.00
2022-08-17T09:55:56.360Z,97959.81
2022-08-17T09:57:31.451Z,97966.59
2022-08-17T09:58:45.486Z,97962.34
2022-08-17T10:00:05.271Z,97960.72
2022-08-17T10:01:31.923Z,97954.13
2022-08-17T10:02:39.313Z,97956.41
2022-08-17T10:04:20.244Z,97949.00
2022-08-17T10:05:35.730Z,97948.00
2022-08-17T10:06:52.266Z,97945.19
2022-08-17T10:08:08.950Z,97948.69
2022-08-17T10:09:29.992Z,97948.69
2022-08-17T10:10:52.351Z,97953.25
2022-08-17T10:12:30.241Z,97965.06
2022-08-17T10:13:34.649Z,97966.34
2022-08-17T10:14:46.649Z,97957.69
2022-08-17T10:16:16.655Z,97951.69
2022-08-17T10:17:25.648Z,97961.19
2022-08-17T10:18:34.694Z,97965.16
2022-08-17T10:19:46.010Z,97955.63
2022-08-17T10:21:06.030Z,97963.56
2022-08-17T10:22:34.836Z,97961.03
2022-08-17T10:23:40.142Z,97968.91
2022-08-17T10:25:21.376Z,97977.13
2022-08-17T10:26:24.204Z,97969.94
2022-08-17T10:27:39.442Z,97985.97
2022-08-17T10:28:55.944Z,97976.38
2022-08-17T10:30:02.090Z,97980.59
2022-08-17T10:32:35.654Z,97975.59
2022-08-17T10:33:56.480Z,97965.50
2022-08-17T10:35:22.026Z,97987.94
2022-08-17T10:36:37.832Z,97981.31
2022-08-17T10:37:41.978Z,97983.94
2022-08-17T10:38:49.520Z,97979.69
2022-08-17T10:40:28.069Z,97986.31
2022-08-17T10:41:40.407Z,97985.06
2022-08-17T10:43:00.878Z,97984.31
2022-08-17T10:44:37.066Z,97980.44
2022-08-17T10:45:48.325Z,97991.00
2022-08-17T10:47:12.660Z,97992.66
2022-08-17T10:48:14.268Z,98001.09
2022-08-17T10:49:18.855Z,97999.56
2022-08-17T10:50:42.077Z,98003.75
2022-08-17T10:51:46.220Z,98007.56
2022-08-17T10:52:48.578Z,98004.72
2022-08-17T10:53:50.948Z,98004.41
2022-08-17T10:54:58.233Z,98010.00
2022-08-17T10:56:12.702Z,98021.38
2022-08-17T10:57:26.496Z,98022.19
2022-08-17T10:58:45.151Z,98030.22
2022-08-17T10:59:49.483Z,98023.81
2022-08-17T11:00:54.112Z,98028.97
2022-08-17T11:02:02.947Z,98027.97
2022-08-17T11:03:18.711Z,98028.03
2022-08-17T11:04:51.041Z,98027.03
2022-08-17T11:05:59.908Z,98023.13
2022-08-17T11:07:35.435Z,98045.03
2022-08-17T11:08:55.556Z,98059.25
2022-08-17T11:10:25.501Z,98067.72
2022-08-17T11:11:48.755Z,98074.06
2022-08-17T11:13:03.242Z,98060.75
2022-08-17T11:14:13.100Z,98053.06
2022-08-17T11:15:23.647Z,98059.34
2022-08-17T11:16:43.926Z,98060.16
2022-08-17T11:18:22.580Z,98056.28
2022-08-17T11:19:42.285Z,98058.69
2022-08-17T11:21:01.236Z,98069.19
2022-08-17T11:22:21.396Z,98063.09
2022-08-17T11:23:28.846Z,98061.97
2022-08-17T11:24:40.402Z,98052.31
2022-08-17T11:25:55.739Z,98052.31
2022-08-17T11:27:22.258Z,98056.25
2022-08-17T11:28:27.615Z,98047.44
2022-08-17T11:29:56.817Z,98046.72
2022-08-17T11:31:44.051Z,98046.41
2022-08-17T11:32:54.658Z,98040.66
2022-08-17T11:34:18.773Z,98036.84
2022-08-17T11:35:20.290Z,98028.72
2022-08-17T11:36:46.300Z,98032.19
2022-08-17T11:38:31.007Z,98039.13
2022-08-17T11:40:02.094Z,98036.44
2022-08-17T11:41:36.190Z,98045.31
2022-08-17T11:42:49.798Z,98037.28
2022-08-17T11:44:04.196Z,98038.47
2022-08-17T11:45:32.285Z,98044.75
2022-08-17T11:46:50.990Z,98048.63
2022-08-17T11:48:27.656Z,98056.72
2022-08-17T11:49:45.085Z,98050.63
2022-08-17T11:50:54.088Z,98058.78
2022-08-17T11:52:09.737Z,98069.28
2022-08-17T11:53:37.508Z,98068.16
2022-08-17T11:54:46.796Z,98068.53
2022-08-17T11:55:57.654Z,98066.59
2022-08-17T11:57:19.895Z,98071.22
2022-08-17T11:58:30.592Z,98061.19
2022-08-17T11:59:32.021Z,98058.56
2022-08-17T12:00:46.395Z,98057.78
2022-08-17T12:01:55.384Z,98054.31
2022-08-17T12:03:15.472Z,98063.19
2022-08-17T12:04:24.958Z,98067.50
2022-08-17T12:05:31.150Z,98065.19
2022-08-17T12:06:35.410Z,98053.56
2022-08-17T12:07:42.208Z,98050.44
2022-08-17T12:08:55.193Z,98043.84
2022-08-17T12:10:00.050Z,98038.84
2022-08-17T12:11:09.772Z,98041.50
2022-08-17T12:12:16.833Z,98029.91
2022-08-17T12:13:19.199Z,98039.50
2022-08-17T12:14:40.104Z,98046.72
2022-08-17T12:15:50.378Z,98049.38
2022-08-17T12:16:58.684Z,98044.25
2022-08-17T12:18:00.316Z,98038.03
2022-08-17T12:19:03.696Z,98029.81
2022-08-17T12:20:18.102Z,98034.03
2022-08-17T12:21:52.130Z,98029.31
2022-08-17T12:23:09.310Z,98033.81
2022-08-17T12:24:35.266Z,98026.78
2022-08-17T12:25:47.580Z,98020.16
2022-08-17T12:26:58.112Z,98007.75
2022-08-17T12:28:04.911Z,98015.03
2022-08-17T12:29:18.492Z,98001.84
2022-08-17T12:30:37.401Z,98007.94
2022-08-17T12:31:58.591Z,97997.41
2022-08-17T12:33:00.693Z,98002.75
2022-08-17T12:34:04.536Z,98001.94
2022-08-17T12:35:23.811Z,98000.75
2022-08-17T12:36:27.377Z,97996.88
2022-08-17T12:37:32.117Z,97997.34
2022-08-17T12:38:36.743Z,97992.25
2022-08-17T12:39:40.377Z,97993.34
2022-08-17T12:40:57.858Z,97994.06
2022-08-17T12:42:02.623Z,97996.25
2022-08-17T12:43:20.050Z,97984.47
2022-08-17T12:44:36.256Z,97989.69
2022-08-17T12:45:57.027Z,97988.84
2022-08-17T12:47:11.860Z,97985.69
2022-08-17T12:48:22.666Z,97976.00
2022-08-17T12:49:24.160Z,97984.09
2022-08-17T12:50:28.619Z,97983.34
2022-08-17T12:51:31.504Z,97980.53
2022-08-17T12:52:37.167Z,97982.03
2022-08-17T12:53:40.138Z,97981.91
2022-08-17T12:55:01.618Z,97974.16
2022-08-17T12:56:10.978Z,97970.63
2022-08-17T12:57:19.385Z,97968.22
2022-08-17T12:58:25.017Z,97964.38
2022-08-17T12:59:30.269Z,97960.53
2022-08-17T13:00:37.855Z,97961.66
2022-08-17T13:01:42.623Z,97951.97
2022-08-17T13:02:48.938Z,97947.63
2022-08-17T13:03:55.042Z,97942.88
2022-08-17T13:05:00.234Z,97946.03
2022-08-17T13:06:06.018Z,97944.13
2022-08-17T13:07:07.606Z,97935.59
2022-08-17T13:08:30.955Z,97944.22
2022-08-17T13:09:35.590Z,97936.88
2022-08-17T13:10:43.702Z,97945.88
2022-08-17T13:11:54.900Z,97943.22
2022-08-17T13:12:56.910Z,97939.81
2022-08-17T13:14:09.430Z,97933.78
2022-08-17T13:15:24.923Z,97937.97
2022-08-17T13:16:30.664Z,97933.66
2022-08-17T13:17:35.509Z,97924.56
2022-08-17T13:18:47.048Z,97921.47
2022-08-17T13:19:50.814Z,97923.41
2022-08-17T13:20:53.463Z,97915.03
2022-08-17T13:21:59.100Z,97918.47
2022-08-17T13:23:11.425Z,97914.19
2022-08-17T13:24:19.435Z,97921.47
2022-08-17T13:25:21.120Z,97926.19
2022-08-17T13:26:40.067Z,97925.75
2022-08-17T13:27:42.971Z,97914.16
2022-08-17T13:28:49.113Z,97926.78
2022-08-17T13:29:54.738Z,97917.41
2022-08-17T13:31:27.248Z,97930.16
2022-08-17T13:32:39.920Z,97930.94
2022-08-17T13:33:45.911Z,97933.09
2022-08-17T13:35:15.315Z,97940.50
2022-08-17T13:36:27.993Z,97942.34
2022-08-17T13:37:35.518Z,97937.69
2022-08-17T13:38:44.939Z,97932.97
2022-08-17T13:39:46.556Z,97931.16
2022-08-17T13:40:52.753Z,97934.63
2022-08-17T13:41:54.776Z,97934.00
2022-08-17T13:42:57.423Z,97926.53
2022-08-17T13:43:59.034Z,97923.06
2022-08-17T13:45:01.491Z,97926.31
2022-08-17T13:46:28.330Z,97922.41
2022-08-17T13:47:29.927Z,97926.13
2022-08-17T13:48:31.529Z,97926.22